Patterson, North Carolina
Current Conditions -  °F | °C
As of 12:35 PM on Wednesday 26 Nov 2014 (Local Time) from KMRN Reporting Station
Broken Clouds Broken Clouds  
Wind Chill: 47°   Ceiling: 1400
Heat Index: 47°   Visibility: 10mi
Dew Point: 42°   Wind: 0mph
Humidity: 81%   Direction: NA
Pressure: 30.03"   Gusts: NA
Location:  36°N, 81.56°W
Report Text: KMRN 261735Z AUTO 00000KT 10SM BKN014 BKN023 08/05 A3003 RMK AO2 T00840054
Loading
Personal Weather Stations






























Interactive Weather Map New forecast layout! Learn more

10-Day Weather Forecast

Advertisements
Track Severe Weather on mobile